Time;durP1;ratioP1;P1;durP2;ratioP2;P2;SDS_P1;SDS_P2;PMS_P1;PMS_P2;Temp;Humidity;BMP_temperature;BMP_pressure;BME280_temperature;BME280_humidity;BME280_pressure;Samples;Min_cycle;Max_cycle;Signal;HPM_P1;HPM_P2
2021/08/23 20:18:23;;;;;;;;;;;;;;;19.72;48.27;100036.28;3332985;29;19936;-73
2021/08/23 20:20:05;;;;;;;;;;;;;;;19.72;47.89;100028.16;3336841;29;20400;-73
2021/08/23 20:21:46;;;;;;;;;;;;;;;19.73;47.96;100029.78;3339160;29;20041;-76
2021/08/23 20:23:27;;;;;;;;;;;;;;;19.74;48.35;100033.31;3336882;29;19954;-76
2021/08/23 20:25:08;;;;;;;;;;;;;;;19.74;48.23;100028.72;3337620;29;19929;-75
2021/08/23 20:26:49;;;;;;;;;;;;;;;19.74;48.06;100028.72;3337922;29;19979;-76
2021/08/23 20:28:30;;;;;;;;;;;;;;;19.71;48.23;100028.41;3337869;29;20387;-72
2021/08/23 20:30:11;;;;;;;;;;;;;;;19.69;48.51;100030.53;3338069;29;20315;-74
2021/08/23 20:31:51;;;;;;;;;;;;;;;19.67;48.43;100030.78;3337812;29;19928;-74
2021/08/23 20:33:41;;;;;;;;;;;;;;;19.65;48.51;100021.25;3337600;29;20407;-73
2021/08/23 20:35:24;;;;;;;;;;;;;;;19.62;48.54;100030.66;3325175;29;19952;-75
2021/08/23 20:38:45;;;;;;;;;;;;;;;19.57;48.83;100033.28;3334195;29;19957;-74
2021/08/23 20:40:27;;;;;;;;;;;;;;;19.55;48.87;100036.22;3336479;29;19939;-77
2021/08/23 20:42:10;;;;;;;;;;;;;;;19.51;48.98;100032.34;3333962;29;19929;-81
2021/08/23 20:43:52;;;;;;;;;;;;;;;19.50;48.98;100036.13;3325857;29;19965;-82
2021/08/23 20:45:33;;;;;;;;;;;;;;;19.47;49.16;100033.94;3335608;29;19928;-78
2021/08/23 20:47:20;;;;;;;;;;;;;;;19.46;49.28;100032.28;3338959;29;19929;-78
2021/08/23 20:49:00;;;;;;;;;;;;;;;19.45;48.79;100032.53;3339474;29;19935;-78
2021/08/23 20:50:43;;;;;;;;;;;;;;;19.44;49.34;100030.88;3342276;29;20360;-78
2021/08/23 20:52:23;;;;;;;;;;;;;;;19.40;49.26;100035.97;3333189;29;19929;-78
2021/08/23 20:54:04;;;;;;;;;;;;;;;19.35;49.40;100030.47;3355274;29;19976;-78
2021/08/23 20:55:44;;;;;;;;;;;;;;;19.30;49.57;100033.09;3344494;29;19984;-79
2021/08/23 20:57:26;;;;;;;;;;;;;;;19.27;49.52;100036.28;3345812;29;19932;-79
2021/08/23 20:59:08;;;;;;;;;;;;;;;19.25;49.44;100033.00;3351193;29;19975;-78
2021/08/23 21:00:49;;;;;;;;;;;;;;;19.25;49.65;100039.22;3349220;29;19928;-80
2021/08/23 21:02:30;;;;;;;;;;;;;;;19.23;49.73;100040.50;3337384;29;20560;-74
2021/08/23 21:04:10;;;;;;;;;;;;;;;19.24;49.54;100044.88;3334868;29;19979;-76
2021/08/23 21:05:51;;;;;;;;;;;;;;;19.23;49.61;100052.13;3343236;29;19924;-75
2021/08/23 21:07:31;;;;;;;;;;;;;;;19.23;49.75;100043.22;3339967;29;20390;-75
2021/08/23 21:09:13;;;;;;;;;;;;;;;19.22;49.62;100047.00;3338380;29;20384;-80
2021/08/23 21:10:55;;;;;;;;;;;;;;;19.20;49.98;100047.22;3336912;29;19984;-80
2021/08/23 21:12:36;;;;;;;;;;;;;;;19.20;49.72;100047.22;3338635;29;19938;-81
2021/08/23 21:14:17;;;;;;;;;;;;;;;19.20;50.03;100041.00;3337950;29;19990;-80
2021/08/23 21:15:57;;;;;;;;;;;;;;;19.17;49.97;100048.53;3334104;29;20397;-80
2021/08/23 21:17:38;;;;;;;;;;;;;;;19.17;50.13;100050.41;3325223;29;20313;-80
2021/08/23 21:19:19;;;;;;;;;;;;;;;19.16;50.03;100048.78;3347750;29;20027;-80
2021/08/23 21:21:06;;;;;;;;;;;;;;;19.14;49.85;100049.03;3341783;29;19928;-81
2021/08/23 21:22:47;;;;;;;;;;;;;;;19.09;50.39;100053.53;3325691;29;19967;-80
2021/08/23 21:24:29;;;;;;;;;;;;;;;19.07;50.40;100048.34;3343107;29;19980;-81
2021/08/23 21:26:09;;;;;;;;;;;;;;;19.07;50.48;100047.53;3338452;29;19967;-81
2021/08/23 21:27:52;;;;;;;;;;;;;;;19.06;50.41;100045.91;3338129;29;19935;-80
2021/08/23 21:29:32;;;;;;;;;;;;;;;19.06;50.48;100046.72;3339205;29;20404;-80
2021/08/23 21:31:13;;;;;;;;;;;;;;;19.03;50.29;100052.59;3335250;29;19936;-75
2021/08/23 21:32:54;;;;;;;;;;;;;;;19.01;50.18;100054.72;3338213;29;19928;-76
2021/08/23 21:34:36;;;;;;;;;;;;;;;19.00;50.65;100053.09;3342619;29;19936;-76
2021/08/23 21:36:16;;;;;;;;;;;;;;;18.98;50.63;100049.81;3339322;29;19928;-75
2021/08/23 21:37:58;;;;;;;;;;;;;;;18.99;50.34;100050.63;3337750;29;19929;-75
2021/08/23 21:39:38;;;;;;;;;;;;;;;18.98;50.43;100044.41;3342167;29;19935;-74
2021/08/23 21:41:19;;;;;;;;;;;;;;;18.99;50.65;100050.63;3350126;29;19928;-76
2021/08/23 21:43:00;;;;;;;;;;;;;;;18.96;50.79;100051.91;3350077;29;19927;-75
2021/08/23 21:44:42;;;;;;;;;;;;;;;18.95;50.83;100045.72;3340101;29;19935;-75
2021/08/23 21:46:24;;;;;;;;;;;;;;;18.94;50.71;100043.22;3338039;29;19932;-76
2021/08/23 21:48:06;;;;;;;;;;;;;;;18.93;50.78;100049.72;3337520;29;20407;-75
2021/08/23 21:49:47;;;;;;;;;;;;;;;18.92;50.54;100045.34;3337278;29;20031;-76
2021/08/23 21:51:27;;;;;;;;;;;;;;;18.92;50.74;100050.75;3337801;29;19928;-75
2021/08/23 21:53:09;;;;;;;;;;;;;;;18.92;50.59;100051.59;3338809;29;20338;-76
2021/08/23 21:54:50;;;;;;;;;;;;;;;18.92;50.85;100056.16;3337541;29;19936;-77
2021/08/23 21:56:31;;;;;;;;;;;;;;;18.91;51.04;100057.22;3342978;29;19934;-77
2021/08/23 21:58:12;;;;;;;;;;;;;;;18.90;50.70;100056.41;3344202;29;20311;-77
2021/08/23 21:59:53;;;;;;;;;;;;;;;18.88;50.97;100053.13;3338784;29;19929;-75
2021/08/23 22:01:35;;;;;;;;;;;;;;;18.85;50.79;100055.50;3337405;29;19935;-75
2021/08/23 22:03:18;;;;;;;;;;;;;;;18.82;51.31;100055.94;3330586;29;19929;-76
2021/08/23 22:05:00;;;;;;;;;;;;;;;18.81;51.33;100059.72;3335240;29;20007;-75
2021/08/23 22:06:40;;;;;;;;;;;;;;;18.78;51.17;100057.50;3321049;29;20304;-76
2021/08/23 22:08:21;;;;;;;;;;;;;;;18.76;51.20;100056.91;3335022;29;20406;-76
2021/08/23 22:10:02;;;;;;;;;;;;;;;18.74;51.58;100057.97;3338431;29;19964;-75
2021/08/23 22:11:44;;;;;;;;;;;;;;;18.72;51.29;100057.38;3360425;29;20441;-76
2021/08/23 22:13:26;;;;;;;;;;;;;;;18.70;51.70;100054.09;3342220;29;19934;-74
2021/08/23 22:15:11;;;;;;;;;;;;;;;18.68;51.73;100058.91;3336410;29;19932;-76
2021/08/23 22:16:56;;;;;;;;;;;;;;;18.69;51.68;100051.63;3357273;29;20453;-76
2021/08/23 22:18:36;;;;;;;;;;;;;;;18.69;51.39;100049.75;3342759;29;19929;-76
2021/08/23 22:20:20;;;;;;;;;;;;;;;18.69;51.50;100057.84;3336416;29;20097;-79
2021/08/23 22:22:03;;;;;;;;;;;;;;;18.72;51.67;100059.25;3335653;29;19939;-80
2021/08/23 22:23:46;;;;;;;;;;;;;;;18.71;51.59;100047.63;3335545;29;19928;-79
2021/08/23 22:25:26;;;;;;;;;;;;;;;18.73;51.51;100059.00;3309924;29;19936;-81
2021/08/23 22:27:07;;;;;;;;;;;;;;;18.72;51.57;100051.97;3332359;29;20491;-80
2021/08/23 22:28:49;;;;;;;;;;;;;;;18.72;51.58;100051.97;3335794;29;19936;-80
2021/08/23 22:30:30;;;;;;;;;;;;;;;18.71;52.05;100049.50;3338206;29;19928;-81
2021/08/23 22:32:12;;;;;;;;;;;;;;;18.69;51.81;100052.47;3337052;29;19928;-81
2021/08/23 22:33:53;;;;;;;;;;;;;;;18.68;51.83;100049.97;3337908;29;20315;-79
2021/08/23 22:35:34;;;;;;;;;;;;;;;18.68;52.00;100047.28;3337807;29;20039;-78
2021/08/23 22:37:15;;;;;;;;;;;;;;;18.69;51.91;100052.47;3337373;29;20306;-79
2021/08/23 22:38:56;;;;;;;;;;;;;;;18.66;51.85;100047.50;3335517;29;19928;-77
2021/08/23 22:40:39;;;;;;;;;;;;;;;18.66;51.96;100052.91;3336124;29;19929;-77
2021/08/23 22:42:21;;;;;;;;;;;;;;;18.66;51.91;100044.81;3337506;29;20646;-77
2021/08/23 22:44:01;;;;;;;;;;;;;;;18.69;52.09;100051.63;3337759;29;19928;-77
2021/08/23 22:45:43;;;;;;;;;;;;;;;18.67;51.87;100043.78;3337924;29;19929;-76
2021/08/23 22:47:24;;;;;;;;;;;;;;;18.67;52.00;100049.16;3337356;29;19936;-77
2021/08/23 22:49:06;;;;;;;;;;;;;;;18.67;52.03;100048.34;3336840;29;20435;-77
2021/08/23 22:50:48;;;;;;;;;;;;;;;18.67;52.04;100043.78;3333287;29;20324;-79
2021/08/23 22:52:28;;;;;;;;;;;;;;;18.68;52.57;100053.50;3336180;29;19932;-80
2021/08/23 22:54:09;;;;;;;;;;;;;;;18.67;52.04;100049.16;3337145;29;19940;-79
2021/08/23 22:55:49;;;;;;;;;;;;;;;18.66;52.28;100058.31;3337536;29;19935;-79
2021/08/23 22:57:30;;;;;;;;;;;;;;;18.66;52.21;100050.22;3324033;29;20324;-79
2021/08/23 22:59:10;;;;;;;;;;;;;;;18.66;52.28;100058.31;3334563;29;20446;-81
2021/08/23 23:00:51;;;;;;;;;;;;;;;18.67;52.53;100064.56;3336452;29;19939;-73
2021/08/23 23:02:33;;;;;;;;;;;;;;;18.67;54.47;100059.97;3334651;29;19928;-74
2021/08/23 23:04:15;;;;;;;;;;;;;;;18.68;53.87;100060.78;3340973;29;19928;-74
2021/08/23 23:05:56;;;;;;;;;;;;;;;18.68;54.71;100058.09;3337538;29;19929;-74
2021/08/23 23:07:37;;;;;;;;;;;;;;;18.68;55.30;100058.91;3340809;29;19936;-74
2021/08/23 23:09:19;;;;;;;;;;;;;;;18.72;55.69;100060.06;3337066;29;19971;-75
2021/08/23 23:11:00;;;;;;;;;;;;;;;18.80;55.96;100061.59;3337011;29;19929;-75
2021/08/23 23:12:40;;;;;;;;;;;;;;;18.86;56.44;100062.53;3338100;29;19984;-74
2021/08/23 23:14:21;;;;;;;;;;;;;;;18.90;56.67;100061.81;3338075;29;20378;-74
2021/08/23 23:16:04;;;;;;;;;;;;;;;18.95;56.36;100055.69;3336535;29;20019;-74
2021/08/23 23:17:48;;;;;;;;;;;;;;;18.97;56.25;100061.66;3336075;29;19951;-74
2021/08/23 23:19:29;;;;;;;;;;;;;;;18.96;55.80;100055.44;3335801;29;19929;-73
2021/08/23 23:21:09;;;;;;;;;;;;;;;18.94;55.68;100056.75;3331435;29;19929;-73
2021/08/23 23:22:50;;;;;;;;;;;;;;;18.93;55.83;100055.94;3328081;29;19928;-74
2021/08/23 23:24:30;;;;;;;;;;;;;;;18.94;56.03;100054.84;3337354;29;19928;-72
2021/08/23 23:26:26;;;;;;;;;;;;;;;18.97;55.90;100058.94;3332052;29;19929;-73
2021/08/23 23:28:06;;;;;;;;;;;;;;;19.00;55.90;100053.09;3335745;29;19928;-73
2021/08/23 23:29:47;;;;;;;;;;;;;;;19.00;55.85;100061.19;3337080;29;20258;-74
2021/08/23 23:31:27;;;;;;;;;;;;;;;18.99;55.97;100056.03;3337000;29;20332;-73
2021/08/23 23:33:08;;;;;;;;;;;;;;;18.96;55.79;100052.72;3336223;29;20027;-74
2021/08/23 23:34:48;;;;;;;;;;;;;;;18.95;55.57;100061.09;3332533;29;19936;-74
2021/08/23 23:36:32;;;;;;;;;;;;;;;18.97;55.87;100064.34;3335670;29;20154;-72
2021/08/23 23:38:13;;;;;;;;;;;;;;;18.99;55.99;100070.34;3337676;29;19989;-73
2021/08/23 23:39:53;;;;;;;;;;;;;;;19.00;55.97;100060.34;3337709;29;19925;-73
2021/08/23 23:41:34;;;;;;;;;;;;;;;19.01;55.80;100065.53;3335963;29;20419;-75
2021/08/23 23:43:15;;;;;;;;;;;;;;;19.03;55.89;100057.19;3336512;29;19959;-75
2021/08/23 23:44:56;;;;;;;;;;;;;;;19.03;56.22;100058.00;3336143;29;19924;-74
2021/08/23 23:46:36;;;;;;;;;;;;;;;19.00;55.61;100066.59;3336039;29;19929;-73
2021/08/23 23:48:17;;;;;;;;;;;;;;;18.98;55.79;100063.31;3336612;29;20387;-73
2021/08/23 23:49:57;;;;;;;;;;;;;;;18.96;55.63;100066.25;3337940;29;19928;-73
2021/08/23 23:51:38;;;;;;;;;;;;;;;18.94;55.93;100064.84;3337805;29;19967;-75
2021/08/23 23:53:19;;;;;;;;;;;;;;;18.91;55.99;100066.13;3334940;29;20023;-73
2021/08/23 23:54:59;;;;;;;;;;;;;;;18.89;55.98;100059.34;3331597;29;20023;-75
2021/08/23 23:56:42;;;;;;;;;;;;;;;18.87;55.65;100054.19;3336089;29;19964;-75
2021/08/23 23:58:23;;;;;;;;;;;;;;;18.87;55.82;100058.75;3337081;29;19932;-73
